sensor_id;sensor_type;location;lat;lon;timestamp;P1;durP1;ratioP1;P2;durP2;ratioP2
77513;SDS011;66626;48.872;9.084;2023-03-13T00:00:27;12.68;;;2.33;;
77513;SDS011;66626;48.872;9.084;2023-03-13T00:02:53;10.82;;;3.03;;
77513;SDS011;66626;48.872;9.084;2023-03-13T00:05:18;7.07;;;1.83;;
77513;SDS011;66626;48.872;9.084;2023-03-13T00:07:43;7.75;;;2.97;;
77513;SDS011;66626;48.872;9.084;2023-03-13T00:10:09;4.60;;;1.90;;
77513;SDS011;66626;48.872;9.084;2023-03-13T00:12:34;7.43;;;2.15;;
77513;SDS011;66626;48.872;9.084;2023-03-13T00:14:59;10.45;;;2.47;;
77513;SDS011;66626;48.872;9.084;2023-03-13T00:17:25;8.68;;;2.33;;
77513;SDS011;66626;48.872;9.084;2023-03-13T00:19:50;11.55;;;3.00;;
77513;SDS011;66626;48.872;9.084;2023-03-13T00:22:15;10.93;;;2.65;;
77513;SDS011;66626;48.872;9.084;2023-03-13T00:24:40;10.70;;;2.13;;
77513;SDS011;66626;48.872;9.084;2023-03-13T00:27:06;12.43;;;2.67;;
77513;SDS011;66626;48.872;9.084;2023-03-13T00:29:32;7.63;;;2.60;;
77513;SDS011;66626;48.872;9.084;2023-03-13T00:31:58;9.63;;;2.25;;
77513;SDS011;66626;48.872;9.084;2023-03-13T00:34:23;10.05;;;1.98;;
77513;SDS011;66626;48.872;9.084;2023-03-13T00:36:51;5.68;;;1.75;;
77513;SDS011;66626;48.872;9.084;2023-03-13T00:39:16;11.48;;;3.47;;
77513;SDS011;66626;48.872;9.084;2023-03-13T00:41:42;5.97;;;1.98;;
77513;SDS011;66626;48.872;9.084;2023-03-13T00:44:08;7.80;;;1.48;;
77513;SDS011;66626;48.872;9.084;2023-03-13T00:46:34;8.27;;;1.40;;
77513;SDS011;66626;48.872;9.084;2023-03-13T00:48:59;11.55;;;2.20;;
77513;SDS011;66626;48.872;9.084;2023-03-13T00:51:25;7.40;;;2.28;;
77513;SDS011;66626;48.872;9.084;2023-03-13T00:53:51;5.75;;;2.17;;
77513;SDS011;66626;48.872;9.084;2023-03-13T00:56:17;8.13;;;2.03;;
77513;SDS011;66626;48.872;9.084;2023-03-13T00:58:44;4.80;;;1.80;;
77513;SDS011;66626;48.872;9.084;2023-03-13T01:01:12;10.93;;;2.30;;
77513;SDS011;66626;48.872;9.084;2023-03-13T01:03:37;7.53;;;1.85;;
77513;SDS011;66626;48.872;9.084;2023-03-13T01:06:05;6.55;;;1.83;;
77513;SDS011;66626;48.872;9.084;2023-03-13T01:08:32;7.55;;;2.10;;
77513;SDS011;66626;48.872;9.084;2023-03-13T01:10:58;7.53;;;1.73;;
77513;SDS011;66626;48.872;9.084;2023-03-13T01:13:28;6.20;;;2.10;;
77513;SDS011;66626;48.872;9.084;2023-03-13T01:15:56;6.93;;;2.10;;
77513;SDS011;66626;48.872;9.084;2023-03-13T01:18:22;6.95;;;1.88;;
77513;SDS011;66626;48.872;9.084;2023-03-13T01:20:47;25.25;;;2.63;;
77513;SDS011;66626;48.872;9.084;2023-03-13T01:23:12;10.65;;;2.45;;
77513;SDS011;66626;48.872;9.084;2023-03-13T01:25:38;8.68;;;2.08;;
77513;SDS011;66626;48.872;9.084;2023-03-13T01:28:04;7.93;;;2.25;;
77513;SDS011;66626;48.872;9.084;2023-03-13T01:30:29;7.20;;;2.10;;
77513;SDS011;66626;48.872;9.084;2023-03-13T01:32:55;14.07;;;2.58;;
77513;SDS011;66626;48.872;9.084;2023-03-13T01:35:20;10.20;;;2.03;;
77513;SDS011;66626;48.872;9.084;2023-03-13T01:37:45;9.07;;;1.73;;
77513;SDS011;66626;48.872;9.084;2023-03-13T01:40:12;3.38;;;1.02;;
77513;SDS011;66626;48.872;9.084;2023-03-13T01:42:54;6.07;;;2.13;;
77513;SDS011;66626;48.872;9.084;2023-03-13T01:51:13;13.43;;;2.10;;
77513;SDS011;66626;48.872;9.084;2023-03-13T01:53:43;9.85;;;1.80;;
77513;SDS011;66626;48.872;9.084;2023-03-13T01:56:11;5.18;;;1.33;;
77513;SDS011;66626;48.872;9.084;2023-03-13T01:58:39;10.95;;;1.63;;
77513;SDS011;66626;48.872;9.084;2023-03-13T02:01:04;8.02;;;1.98;;
77513;SDS011;66626;48.872;9.084;2023-03-13T02:03:30;5.85;;;1.95;;
77513;SDS011;66626;48.872;9.084;2023-03-13T02:05:57;8.82;;;1.73;;
77513;SDS011;66626;48.872;9.084;2023-03-13T02:08:58;6.80;;;1.50;;
77513;SDS011;66626;48.872;9.084;2023-03-13T02:14:18;5.97;;;1.35;;
77513;SDS011;66626;48.872;9.084;2023-03-13T02:16:44;7.35;;;1.42;;
77513;SDS011;66626;48.872;9.084;2023-03-13T02:25:17;5.50;;;2.03;;
77513;SDS011;66626;48.872;9.084;2023-03-13T02:27:54;4.65;;;1.50;;
77513;SDS011;66626;48.872;9.084;2023-03-13T02:30:22;7.95;;;1.60;;
77513;SDS011;66626;48.872;9.084;2023-03-13T02:32:48;4.90;;;1.80;;
77513;SDS011;66626;48.872;9.084;2023-03-13T02:35:14;7.07;;;1.73;;
77513;SDS011;66626;48.872;9.084;2023-03-13T02:37:42;8.02;;;1.73;;
77513;SDS011;66626;48.872;9.084;2023-03-13T02:40:11;5.47;;;1.55;;
77513;SDS011;66626;48.872;9.084;2023-03-13T02:42:40;4.45;;;1.05;;
77513;SDS011;66626;48.872;9.084;2023-03-13T02:45:06;4.00;;;1.33;;
77513;SDS011;66626;48.872;9.084;2023-03-13T02:47:32;4.00;;;1.05;;
77513;SDS011;66626;48.872;9.084;2023-03-13T02:49:57;4.65;;;1.27;;
77513;SDS011;66626;48.872;9.084;2023-03-13T02:52:24;6.18;;;1.33;;
77513;SDS011;66626;48.872;9.084;2023-03-13T02:54:54;4.75;;;1.65;;
77513;SDS011;66626;48.872;9.084;2023-03-13T02:57:23;6.00;;;1.48;;
77513;SDS011;66626;48.872;9.084;2023-03-13T02:59:48;4.93;;;1.75;;
77513;SDS011;66626;48.872;9.084;2023-03-13T03:02:13;6.68;;;1.20;;
77513;SDS011;66626;48.872;9.084;2023-03-13T03:04:39;2.47;;;0.93;;
77513;SDS011;66626;48.872;9.084;2023-03-13T03:07:04;8.27;;;1.20;;
77513;SDS011;66626;48.872;9.084;2023-03-13T03:09:30;4.88;;;1.23;;
77513;SDS011;66626;48.872;9.084;2023-03-13T03:11:55;4.45;;;0.95;;
77513;SDS011;66626;48.872;9.084;2023-03-13T03:14:21;4.65;;;1.27;;
77513;SDS011;66626;48.872;9.084;2023-03-13T03:16:46;5.97;;;1.10;;
77513;SDS011;66626;48.872;9.084;2023-03-13T03:19:11;3.97;;;1.35;;
77513;SDS011;66626;48.872;9.084;2023-03-13T03:21:37;3.97;;;1.00;;
77513;SDS011;66626;48.872;9.084;2023-03-13T03:24:02;7.60;;;1.52;;
77513;SDS011;66626;48.872;9.084;2023-03-13T03:26:28;6.88;;;1.25;;
77513;SDS011;66626;48.872;9.084;2023-03-13T03:28:53;2.97;;;0.70;;
77513;SDS011;66626;48.872;9.084;2023-03-13T03:31:18;5.47;;;1.10;;
77513;SDS011;66626;48.872;9.084;2023-03-13T03:33:44;5.43;;;1.15;;
77513;SDS011;66626;48.872;9.084;2023-03-13T03:36:14;3.25;;;1.42;;
77513;SDS011;66626;48.872;9.084;2023-03-13T03:38:41;4.15;;;0.80;;
77513;SDS011;66626;48.872;9.084;2023-03-13T03:41:07;3.22;;;0.75;;
77513;SDS011;66626;48.872;9.084;2023-03-13T03:43:33;3.58;;;0.88;;
77513;SDS011;66626;48.872;9.084;2023-03-13T03:45:58;6.50;;;1.13;;
77513;SDS011;66626;48.872;9.084;2023-03-13T03:48:24;2.50;;;0.60;;
77513;SDS011;66626;48.872;9.084;2023-03-13T03:50:49;2.60;;;0.98;;
77513;SDS011;66626;48.872;9.084;2023-03-13T03:53:14;2.95;;;0.93;;
77513;SDS011;66626;48.872;9.084;2023-03-13T03:55:40;1.83;;;0.70;;
77513;SDS011;66626;48.872;9.084;2023-03-13T03:58:05;4.57;;;0.93;;
77513;SDS011;66626;48.872;9.084;2023-03-13T04:00:30;1.75;;;0.63;;
77513;SDS011;66626;48.872;9.084;2023-03-13T04:02:56;2.05;;;0.70;;
77513;SDS011;66626;48.872;9.084;2023-03-13T04:05:21;4.63;;;1.00;;
77513;SDS011;66626;48.872;9.084;2023-03-13T04:07:47;4.03;;;0.88;;
77513;SDS011;66626;48.872;9.084;2023-03-13T04:10:12;3.65;;;0.60;;
77513;SDS011;66626;48.872;9.084;2023-03-13T04:12:38;2.03;;;0.80;;
77513;SDS011;66626;48.872;9.084;2023-03-13T04:15:04;3.35;;;1.00;;
77513;SDS011;66626;48.872;9.084;2023-03-13T04:17:29;3.25;;;0.80;;
77513;SDS011;66626;48.872;9.084;2023-03-13T04:19:55;1.45;;;0.60;;
77513;SDS011;66626;48.872;9.084;2023-03-13T04:22:20;2.25;;;0.68;;
77513;SDS011;66626;48.872;9.084;2023-03-13T04:24:45;3.13;;;0.80;;
77513;SDS011;66626;48.872;9.084;2023-03-13T04:27:11;0.47;;;0.35;;
77513;SDS011;66626;48.872;9.084;2023-03-13T04:29:36;3.42;;;1.08;;
77513;SDS011;66626;48.872;9.084;2023-03-13T04:32:01;3.10;;;0.93;;
77513;SDS011;66626;48.872;9.084;2023-03-13T04:34:27;3.97;;;0.88;;
77513;SDS011;66626;48.872;9.084;2023-03-13T04:36:52;1.48;;;0.60;;
77513;SDS011;66626;48.872;9.084;2023-03-13T04:39:18;1.73;;;0.57;;
77513;SDS011;66626;48.872;9.084;2023-03-13T04:41:43;2.67;;;0.98;;
77513;SDS011;66626;48.872;9.084;2023-03-13T04:44:09;3.00;;;0.70;;
77513;SDS011;66626;48.872;9.084;2023-03-13T04:46:34;2.80;;;0.70;;
77513;SDS011;66626;48.872;9.084;2023-03-13T04:49:00;3.75;;;1.20;;
77513;SDS011;66626;48.872;9.084;2023-03-13T04:51:25;2.25;;;0.80;;
77513;SDS011;66626;48.872;9.084;2023-03-13T04:53:50;2.33;;;0.65;;
77513;SDS011;66626;48.872;9.084;2023-03-13T04:56:20;2.60;;;0.68;;
77513;SDS011;66626;48.872;9.084;2023-03-13T04:58:47;1.95;;;0.68;;
77513;SDS011;66626;48.872;9.084;2023-03-13T05:01:13;3.17;;;0.82;;
77513;SDS011;66626;48.872;9.084;2023-03-13T05:03:38;2.63;;;0.75;;
77513;SDS011;66626;48.872;9.084;2023-03-13T05:06:03;1.35;;;0.55;;
77513;SDS011;66626;48.872;9.084;2023-03-13T05:08:29;1.55;;;0.70;;
77513;SDS011;66626;48.872;9.084;2023-03-13T05:10:54;2.78;;;0.77;;
77513;SDS011;66626;48.872;9.084;2023-03-13T05:13:19;2.83;;;0.70;;
77513;SDS011;66626;48.872;9.084;2023-03-13T05:15:45;1.92;;;0.57;;
77513;SDS011;66626;48.872;9.084;2023-03-13T05:18:10;4.82;;;1.23;;
77513;SDS011;66626;48.872;9.084;2023-03-13T05:20:36;3.40;;;0.90;;
77513;SDS011;66626;48.872;9.084;2023-03-13T05:23:02;2.03;;;0.70;;
77513;SDS011;66626;48.872;9.084;2023-03-13T05:25:27;2.55;;;2.17;;
77513;SDS011;66626;48.872;9.084;2023-03-13T05:27:52;2.80;;;0.60;;
77513;SDS011;66626;48.872;9.084;2023-03-13T05:30:17;2.92;;;0.70;;
77513;SDS011;66626;48.872;9.084;2023-03-13T05:32:43;4.32;;;0.70;;
77513;SDS011;66626;48.872;9.084;2023-03-13T05:35:09;1.92;;;0.45;;
77513;SDS011;66626;48.872;9.084;2023-03-13T05:37:34;1.70;;;0.68;;
77513;SDS011;66626;48.872;9.084;2023-03-13T05:39:59;2.35;;;0.88;;
77513;SDS011;66626;48.872;9.084;2023-03-13T05:42:25;1.17;;;0.47;;
77513;SDS011;66626;48.872;9.084;2023-03-13T05:44:50;1.10;;;0.40;;
77513;SDS011;66626;48.872;9.084;2023-03-13T05:47:16;1.40;;;0.50;;
77513;SDS011;66626;48.872;9.084;2023-03-13T05:49:42;1.45;;;0.50;;
77513;SDS011;66626;48.872;9.084;2023-03-13T05:52:08;1.00;;;0.50;;
77513;SDS011;66626;48.872;9.084;2023-03-13T05:54:33;7.82;;;3.03;;
77513;SDS011;66626;48.872;9.084;2023-03-13T05:56:58;2.00;;;0.65;;
77513;SDS011;66626;48.872;9.084;2023-03-13T05:59:23;1.23;;;0.40;;
77513;SDS011;66626;48.872;9.084;2023-03-13T06:01:49;2.88;;;0.93;;
77513;SDS011;66626;48.872;9.084;2023-03-13T06:04:14;2.60;;;0.70;;
77513;SDS011;66626;48.872;9.084;2023-03-13T06:06:39;2.13;;;0.82;;
77513;SDS011;66626;48.872;9.084;2023-03-13T06:09:05;2.20;;;0.80;;
77513;SDS011;66626;48.872;9.084;2023-03-13T06:11:30;1.77;;;0.65;;
77513;SDS011;66626;48.872;9.084;2023-03-13T06:13:55;1.92;;;0.90;;
77513;SDS011;66626;48.872;9.084;2023-03-13T06:16:21;1.45;;;0.57;;
77513;SDS011;66626;48.872;9.084;2023-03-13T06:18:46;1.45;;;0.40;;
77513;SDS011;66626;48.872;9.084;2023-03-13T06:21:11;2.97;;;0.85;;
77513;SDS011;66626;48.872;9.084;2023-03-13T06:23:37;1.27;;;0.45;;
77513;SDS011;66626;48.872;9.084;2023-03-13T06:26:03;4.28;;;1.30;;
77513;SDS011;66626;48.872;9.084;2023-03-13T06:28:28;1.10;;;0.47;;
77513;SDS011;66626;48.872;9.084;2023-03-13T06:30:54;3.35;;;0.50;;
77513;SDS011;66626;48.872;9.084;2023-03-13T06:33:19;2.15;;;0.70;;
77513;SDS011;66626;48.872;9.084;2023-03-13T06:35:44;0.75;;;0.32;;
77513;SDS011;66626;48.872;9.084;2023-03-13T06:38:10;1.90;;;0.60;;
77513;SDS011;66626;48.872;9.084;2023-03-13T06:40:35;0.73;;;0.32;;
77513;SDS011;66626;48.872;9.084;2023-03-13T06:43:01;1.23;;;0.43;;
77513;SDS011;66626;48.872;9.084;2023-03-13T06:45:26;1.45;;;0.32;;
77513;SDS011;66626;48.872;9.084;2023-03-13T06:47:52;2.40;;;0.52;;
77513;SDS011;66626;48.872;9.084;2023-03-13T06:50:17;1.90;;;0.60;;
77513;SDS011;66626;48.872;9.084;2023-03-13T06:52:43;1.45;;;0.60;;
77513;SDS011;66626;48.872;9.084;2023-03-13T06:55:08;0.80;;;0.30;;
77513;SDS011;66626;48.872;9.084;2023-03-13T06:57:34;0.82;;;0.38;;
77513;SDS011;66626;48.872;9.084;2023-03-13T06:59:59;1.52;;;0.50;;
77513;SDS011;66626;48.872;9.084;2023-03-13T07:02:25;2.92;;;0.80;;
77513;SDS011;66626;48.872;9.084;2023-03-13T07:04:50;1.05;;;0.32;;
77513;SDS011;66626;48.872;9.084;2023-03-13T07:07:15;0.68;;;0.32;;
77513;SDS011;66626;48.872;9.084;2023-03-13T07:09:41;0.52;;;0.20;;
77513;SDS011;66626;48.872;9.084;2023-03-13T07:12:06;2.05;;;0.60;;
77513;SDS011;66626;48.872;9.084;2023-03-13T07:14:31;3.33;;;0.57;;
77513;SDS011;66626;48.872;9.084;2023-03-13T07:16:57;1.52;;;0.57;;
77513;SDS011;66626;48.872;9.084;2023-03-13T07:19:23;1.38;;;0.40;;
77513;SDS011;66626;48.872;9.084;2023-03-13T07:21:48;4.00;;;1.00;;
77513;SDS011;66626;48.872;9.084;2023-03-13T07:24:13;1.25;;;0.40;;
77513;SDS011;66626;48.872;9.084;2023-03-13T07:26:39;1.13;;;0.45;;
77513;SDS011;66626;48.872;9.084;2023-03-13T07:29:04;1.70;;;0.60;;
77513;SDS011;66626;48.872;9.084;2023-03-13T07:31:29;1.50;;;0.52;;
77513;SDS011;66626;48.872;9.084;2023-03-13T07:33:57;4.13;;;0.98;;
77513;SDS011;66626;48.872;9.084;2023-03-13T07:36:23;1.15;;;0.40;;
77513;SDS011;66626;48.872;9.084;2023-03-13T07:38:48;2.08;;;0.50;;
77513;SDS011;66626;48.872;9.084;2023-03-13T07:41:14;1.27;;;0.47;;
77513;SDS011;66626;48.872;9.084;2023-03-13T07:43:39;1.15;;;0.52;;
77513;SDS011;66626;48.872;9.084;2023-03-13T07:46:05;1.52;;;0.52;;
77513;SDS011;66626;48.872;9.084;2023-03-13T07:48:32;0.75;;;0.30;;
77513;SDS011;66626;48.872;9.084;2023-03-13T07:50:59;2.45;;;0.70;;
77513;SDS011;66626;48.872;9.084;2023-03-13T07:53:25;1.30;;;0.50;;
77513;SDS011;66626;48.872;9.084;2023-03-13T07:55:57;2.80;;;0.70;;
77513;SDS011;66626;48.872;9.084;2023-03-13T07:58:24;2.38;;;0.63;;
77513;SDS011;66626;48.872;9.084;2023-03-13T08:00:51;0.93;;;0.60;;
77513;SDS011;66626;48.872;9.084;2023-03-13T08:03:17;1.95;;;0.60;;
77513;SDS011;66626;48.872;9.084;2023-03-13T08:05:42;1.98;;;0.40;;
77513;SDS011;66626;48.872;9.084;2023-03-13T08:08:08;1.52;;;0.57;;
77513;SDS011;66626;48.872;9.084;2023-03-13T08:10:33;3.38;;;0.60;;
77513;SDS011;66626;48.872;9.084;2023-03-13T08:12:59;1.30;;;0.50;;
77513;SDS011;66626;48.872;9.084;2023-03-13T08:15:24;0.90;;;0.47;;
77513;SDS011;66626;48.872;9.084;2023-03-13T08:17:56;2.80;;;0.70;;
77513;SDS011;66626;48.872;9.084;2023-03-13T08:20:21;2.95;;;0.57;;
77513;SDS011;66626;48.872;9.084;2023-03-13T08:22:47;1.85;;;0.63;;
77513;SDS011;66626;48.872;9.084;2023-03-13T08:25:13;1.13;;;0.40;;
77513;SDS011;66626;48.872;9.084;2023-03-13T08:27:39;2.35;;;0.93;;
77513;SDS011;66626;48.872;9.084;2023-03-13T08:30:04;1.70;;;0.63;;
77513;SDS011;66626;48.872;9.084;2023-03-13T08:32:33;2.88;;;1.20;;
77513;SDS011;66626;48.872;9.084;2023-03-13T08:34:59;2.70;;;1.17;;
77513;SDS011;66626;48.872;9.084;2023-03-13T08:37:24;1.98;;;0.70;;
77513;SDS011;66626;48.872;9.084;2023-03-13T08:39:50;2.17;;;0.55;;
77513;SDS011;66626;48.872;9.084;2023-03-13T08:42:15;3.30;;;0.80;;
77513;SDS011;66626;48.872;9.084;2023-03-13T08:44:40;2.38;;;0.70;;
77513;SDS011;66626;48.872;9.084;2023-03-13T08:47:06;1.75;;;0.73;;
77513;SDS011;66626;48.872;9.084;2023-03-13T08:49:32;3.00;;;0.65;;
77513;SDS011;66626;48.872;9.084;2023-03-13T08:51:57;4.38;;;0.70;;
77513;SDS011;66626;48.872;9.084;2023-03-13T08:54:23;1.85;;;0.60;;
77513;SDS011;66626;48.872;9.084;2023-03-13T08:56:48;2.03;;;0.60;;
77513;SDS011;66626;48.872;9.084;2023-03-13T08:59:13;3.08;;;0.80;;
77513;SDS011;66626;48.872;9.084;2023-03-13T09:01:39;5.68;;;0.77;;
77513;SDS011;66626;48.872;9.084;2023-03-13T09:04:05;5.55;;;1.15;;
77513;SDS011;66626;48.872;9.084;2023-03-13T09:06:31;4.40;;;0.80;;
77513;SDS011;66626;48.872;9.084;2023-03-13T09:08:57;2.15;;;0.90;;
77513;SDS011;66626;48.872;9.084;2023-03-13T09:11:23;2.95;;;1.50;;
77513;SDS011;66626;48.872;9.084;2023-03-13T09:13:49;2.10;;;0.98;;
77513;SDS011;66626;48.872;9.084;2023-03-13T09:16:18;2.78;;;1.13;;
77513;SDS011;66626;48.872;9.084;2023-03-13T09:18:44;3.35;;;1.20;;
77513;SDS011;66626;48.872;9.084;2023-03-13T09:21:20;3.80;;;1.13;;
77513;SDS011;66626;48.872;9.084;2023-03-13T09:23:55;4.00;;;1.02;;
77513;SDS011;66626;48.872;9.084;2023-03-13T09:26:21;3.03;;;1.00;;
77513;SDS011;66626;48.872;9.084;2023-03-13T09:28:47;4.93;;;1.10;;
77513;SDS011;66626;48.872;9.084;2023-03-13T09:31:13;6.55;;;1.50;;
77513;SDS011;66626;48.872;9.084;2023-03-13T09:33:40;3.45;;;1.00;;
77513;SDS011;66626;48.872;9.084;2023-03-13T09:36:07;5.18;;;1.90;;
77513;SDS011;66626;48.872;9.084;2023-03-13T09:38:33;3.95;;;1.10;;
77513;SDS011;66626;48.872;9.084;2023-03-13T09:41:03;4.97;;;1.17;;
77513;SDS011;66626;48.872;9.084;2023-03-13T09:46:25;6.28;;;1.10;;
77513;SDS011;66626;48.872;9.084;2023-03-13T09:49:00;2.80;;;1.10;;
77513;SDS011;66626;48.872;9.084;2023-03-13T09:51:31;3.90;;;1.17;;
77513;SDS011;66626;48.872;9.084;2023-03-13T09:54:07;5.93;;;1.40;;
77513;SDS011;66626;48.872;9.084;2023-03-13T09:59:15;2.58;;;0.95;;
77513;SDS011;66626;48.872;9.084;2023-03-13T10:01:43;3.60;;;1.10;;
77513;SDS011;66626;48.872;9.084;2023-03-13T10:06:49;3.47;;;1.10;;
77513;SDS011;66626;48.872;9.084;2023-03-13T10:09:17;4.18;;;1.42;;
77513;SDS011;66626;48.872;9.084;2023-03-13T10:11:55;5.35;;;1.20;;
77513;SDS011;66626;48.872;9.084;2023-03-13T10:14:27;2.92;;;1.15;;
77513;SDS011;66626;48.872;9.084;2023-03-13T10:17:00;5.22;;;1.10;;
77513;SDS011;66626;48.872;9.084;2023-03-13T10:19:33;4.35;;;1.30;;
77513;SDS011;66626;48.872;9.084;2023-03-13T10:22:03;2.28;;;0.90;;
77513;SDS011;66626;48.872;9.084;2023-03-13T10:24:37;5.47;;;1.63;;
77513;SDS011;66626;48.872;9.084;2023-03-13T10:27:10;4.30;;;1.52;;
77513;SDS011;66626;48.872;9.084;2023-03-13T10:29:38;3.33;;;1.13;;
77513;SDS011;66626;48.872;9.084;2023-03-13T10:32:04;3.47;;;1.10;;
77513;SDS011;66626;48.872;9.084;2023-03-13T10:34:44;3.20;;;1.10;;
77513;SDS011;66626;48.872;9.084;2023-03-13T10:37:15;2.97;;;1.52;;
77513;SDS011;66626;48.872;9.084;2023-03-13T10:39:44;4.90;;;1.58;;
77513;SDS011;66626;48.872;9.084;2023-03-13T10:42:10;3.85;;;1.13;;
77513;SDS011;66626;48.872;9.084;2023-03-13T10:44:42;4.90;;;1.65;;
77513;SDS011;66626;48.872;9.084;2023-03-13T10:47:08;3.00;;;1.20;;
77513;SDS011;66626;48.872;9.084;2023-03-13T10:49:37;3.63;;;1.40;;
77513;SDS011;66626;48.872;9.084;2023-03-13T10:52:21;4.45;;;1.40;;
77513;SDS011;66626;48.872;9.084;2023-03-13T10:54:55;3.05;;;1.08;;
77513;SDS011;66626;48.872;9.084;2023-03-13T10:59:49;3.00;;;1.20;;
77513;SDS011;66626;48.872;9.084;2023-03-13T11:04:59;3.72;;;1.23;;
77513;SDS011;66626;48.872;9.084;2023-03-13T11:07:27;3.67;;;0.77;;
77513;SDS011;66626;48.872;9.084;2023-03-13T11:10:16;2.95;;;1.20;;
77513;SDS011;66626;48.872;9.084;2023-03-13T11:12:49;5.05;;;1.63;;
77513;SDS011;66626;48.872;9.084;2023-03-13T11:15:17;4.43;;;1.30;;
77513;SDS011;66626;48.872;9.084;2023-03-13T11:17:48;4.75;;;1.70;;
77513;SDS011;66626;48.872;9.084;2023-03-13T11:20:29;3.05;;;1.15;;
77513;SDS011;66626;48.872;9.084;2023-03-13T11:25:40;3.30;;;1.02;;
77513;SDS011;66626;48.872;9.084;2023-03-13T11:31:10;4.78;;;1.30;;
77513;SDS011;66626;48.872;9.084;2023-03-13T11:33:39;3.70;;;1.27;;
77513;SDS011;66626;48.872;9.084;2023-03-13T11:36:20;3.72;;;1.35;;
77513;SDS011;66626;48.872;9.084;2023-03-13T11:41:58;3.63;;;1.35;;
77513;SDS011;66626;48.872;9.084;2023-03-13T11:44:46;4.47;;;1.42;;
77513;SDS011;66626;48.872;9.084;2023-03-13T11:47:34;4.20;;;1.10;;
77513;SDS011;66626;48.872;9.084;2023-03-13T11:52:50;3.25;;;1.20;;
77513;SDS011;66626;48.872;9.084;2023-03-13T12:00:15;3.10;;;1.00;;
77513;SDS011;66626;48.872;9.084;2023-03-13T12:02:45;4.68;;;1.25;;
77513;SDS011;66626;48.872;9.084;2023-03-13T12:05:14;2.63;;;0.98;;
77513;SDS011;66626;48.872;9.084;2023-03-13T12:07:44;4.88;;;1.50;;
77513;SDS011;66626;48.872;9.084;2023-03-13T12:10:14;4.13;;;1.20;;
77513;SDS011;66626;48.872;9.084;2023-03-13T12:12:46;2.83;;;1.00;;
77513;SDS011;66626;48.872;9.084;2023-03-13T12:15:17;3.15;;;1.23;;
77513;SDS011;66626;48.872;9.084;2023-03-13T12:17:48;3.60;;;1.30;;
77513;SDS011;66626;48.872;9.084;2023-03-13T12:20:23;2.92;;;1.00;;
77513;SDS011;66626;48.872;9.084;2023-03-13T12:22:56;5.18;;;1.30;;
77513;SDS011;66626;48.872;9.084;2023-03-13T12:25:27;3.85;;;1.40;;
77513;SDS011;66626;48.872;9.084;2023-03-13T12:30:51;3.72;;;1.10;;
77513;SDS011;66626;48.872;9.084;2023-03-13T12:33:31;3.35;;;1.08;;
77513;SDS011;66626;48.872;9.084;2023-03-13T12:41:42;3.45;;;1.20;;
77513;SDS011;66626;48.872;9.084;2023-03-13T12:44:09;3.30;;;1.27;;
77513;SDS011;66626;48.872;9.084;2023-03-13T12:54:33;4.55;;;1.77;;
77513;SDS011;66626;48.872;9.084;2023-03-13T12:57:17;2.45;;;0.90;;
77513;SDS011;66626;48.872;9.084;2023-03-13T12:59:56;6.95;;;1.40;;
77513;SDS011;66626;48.872;9.084;2023-03-13T13:02:29;3.38;;;1.00;;
77513;SDS011;66626;48.872;9.084;2023-03-13T13:04:55;2.70;;;0.90;;
77513;SDS011;66626;48.872;9.084;2023-03-13T13:07:22;1.95;;;0.85;;
77513;SDS011;66626;48.872;9.084;2023-03-13T13:12:33;3.00;;;0.93;;
77513;SDS011;66626;48.872;9.084;2023-03-13T13:14:59;3.05;;;1.13;;
77513;SDS011;66626;48.872;9.084;2023-03-13T13:19:58;4.05;;;0.90;;
77513;SDS011;66626;48.872;9.084;2023-03-13T13:22:56;4.00;;;0.90;;
77513;SDS011;66626;48.872;9.084;2023-03-13T13:28:50;2.35;;;1.00;;
77513;SDS011;66626;48.872;9.084;2023-03-13T13:36:56;2.55;;;1.00;;
77513;SDS011;66626;48.872;9.084;2023-03-13T13:39:39;2.63;;;0.93;;
77513;SDS011;66626;48.872;9.084;2023-03-13T13:47:42;1.92;;;0.70;;
77513;SDS011;66626;48.872;9.084;2023-03-13T13:52:48;2.67;;;0.80;;
77513;SDS011;66626;48.872;9.084;2023-03-13T13:55:31;3.45;;;1.17;;
77513;SDS011;66626;48.872;9.084;2023-03-13T14:01:04;2.22;;;0.90;;
77513;SDS011;66626;48.872;9.084;2023-03-13T14:03:27;2.95;;;1.10;;
77513;SDS011;66626;48.872;9.084;2023-03-13T14:08:51;2.00;;;0.90;;
77513;SDS011;66626;48.872;9.084;2023-03-13T14:14:14;1.60;;;0.70;;
77513;SDS011;66626;48.872;9.084;2023-03-13T14:16:44;4.97;;;2.05;;
77513;SDS011;66626;48.872;9.084;2023-03-13T14:21:46;2.13;;;0.70;;
77513;SDS011;66626;48.872;9.084;2023-03-13T14:24:12;2.10;;;0.80;;
77513;SDS011;66626;48.872;9.084;2023-03-13T14:26:41;3.63;;;0.85;;
77513;SDS011;66626;48.872;9.084;2023-03-13T14:29:07;3.63;;;0.90;;
77513;SDS011;66626;48.872;9.084;2023-03-13T14:31:41;3.55;;;1.00;;
77513;SDS011;66626;48.872;9.084;2023-03-13T14:34:25;3.47;;;0.90;;
77513;SDS011;66626;48.872;9.084;2023-03-13T14:41:54;3.33;;;0.80;;
77513;SDS011;66626;48.872;9.084;2023-03-13T14:44:22;2.13;;;0.80;;
77513;SDS011;66626;48.872;9.084;2023-03-13T14:46:49;3.83;;;1.00;;
77513;SDS011;66626;48.872;9.084;2023-03-13T14:49:20;3.25;;;0.60;;
77513;SDS011;66626;48.872;9.084;2023-03-13T14:51:54;2.15;;;0.80;;
77513;SDS011;66626;48.872;9.084;2023-03-13T14:54:24;2.95;;;0.82;;
77513;SDS011;66626;48.872;9.084;2023-03-13T14:57:02;3.15;;;0.80;;
77513;SDS011;66626;48.872;9.084;2023-03-13T14:59:30;2.05;;;0.80;;
77513;SDS011;66626;48.872;9.084;2023-03-13T15:02:02;2.15;;;0.60;;
77513;SDS011;66626;48.872;9.084;2023-03-13T15:07:20;3.00;;;1.23;;
77513;SDS011;66626;48.872;9.084;2023-03-13T15:09:46;3.55;;;1.05;;
77513;SDS011;66626;48.872;9.084;2023-03-13T15:12:13;3.13;;;0.82;;
77513;SDS011;66626;48.872;9.084;2023-03-13T15:14:41;3.30;;;1.00;;
77513;SDS011;66626;48.872;9.084;2023-03-13T15:19:52;5.35;;;1.30;;
77513;SDS011;66626;48.872;9.084;2023-03-13T15:22:24;2.88;;;0.73;;
77513;SDS011;66626;48.872;9.084;2023-03-13T15:24:51;3.30;;;1.20;;
77513;SDS011;66626;48.872;9.084;2023-03-13T15:27:18;2.80;;;0.90;;
77513;SDS011;66626;48.872;9.084;2023-03-13T15:29:45;4.95;;;1.38;;
77513;SDS011;66626;48.872;9.084;2023-03-13T15:32:16;2.60;;;0.90;;
77513;SDS011;66626;48.872;9.084;2023-03-13T15:34:47;2.75;;;0.80;;
77513;SDS011;66626;48.872;9.084;2023-03-13T15:37:12;6.78;;;1.00;;
77513;SDS011;66626;48.872;9.084;2023-03-13T15:39:38;2.97;;;1.02;;
77513;SDS011;66626;48.872;9.084;2023-03-13T15:42:03;3.35;;;1.10;;
77513;SDS011;66626;48.872;9.084;2023-03-13T15:44:29;3.40;;;0.93;;
77513;SDS011;66626;48.872;9.084;2023-03-13T15:46:54;6.15;;;2.25;;
77513;SDS011;66626;48.872;9.084;2023-03-13T15:49:19;3.95;;;1.30;;
77513;SDS011;66626;48.872;9.084;2023-03-13T15:51:45;4.45;;;1.30;;
77513;SDS011;66626;48.872;9.084;2023-03-13T15:54:10;6.68;;;2.20;;
77513;SDS011;66626;48.872;9.084;2023-03-13T15:56:35;6.03;;;1.67;;
77513;SDS011;66626;48.872;9.084;2023-03-13T15:59:08;5.93;;;1.58;;
77513;SDS011;66626;48.872;9.084;2023-03-13T16:01:34;3.92;;;1.05;;
77513;SDS011;66626;48.872;9.084;2023-03-13T16:03:59;3.25;;;1.08;;
77513;SDS011;66626;48.872;9.084;2023-03-13T16:06:25;2.70;;;1.10;;
77513;SDS011;66626;48.872;9.084;2023-03-13T16:08:55;2.53;;;0.90;;
77513;SDS011;66626;48.872;9.084;2023-03-13T16:11:22;3.22;;;0.90;;
77513;SDS011;66626;48.872;9.084;2023-03-13T16:13:48;3.05;;;1.00;;
77513;SDS011;66626;48.872;9.084;2023-03-13T16:16:21;3.63;;;1.27;;
77513;SDS011;66626;48.872;9.084;2023-03-13T16:18:49;3.05;;;0.80;;
77513;SDS011;66626;48.872;9.084;2023-03-13T16:21:19;3.05;;;0.98;;
77513;SDS011;66626;48.872;9.084;2023-03-13T16:23:48;4.07;;;1.00;;
77513;SDS011;66626;48.872;9.084;2023-03-13T16:26:18;2.80;;;1.20;;
77513;SDS011;66626;48.872;9.084;2023-03-13T16:28:44;2.05;;;1.10;;
77513;SDS011;66626;48.872;9.084;2023-03-13T16:31:14;8.25;;;1.33;;
77513;SDS011;66626;48.872;9.084;2023-03-13T16:33:51;4.18;;;0.90;;
77513;SDS011;66626;48.872;9.084;2023-03-13T16:36:18;2.72;;;1.10;;